sensor_id;sensor_type;location;lat;lon;timestamp;pressure;altitude;pressure_sealevel;temperature;humidity
48892;BME280;50130;52.150;5.236;2023-02-13T00:00:17;103629.0;;;8.32;88.63
48892;BME280;50130;52.150;5.236;2023-02-13T00:01:55;103622.0;;;8.33;88.53
48892;BME280;50130;52.150;5.236;2023-02-13T00:03:32;103626.0;;;8.31;88.71
48892;BME280;50130;52.150;5.236;2023-02-13T00:06:47;103626.0;;;8.32;88.5
48892;BME280;50130;52.150;5.236;2023-02-13T00:08:23;103623.0;;;8.3;88.58
48892;BME280;50130;52.150;5.236;2023-02-13T00:10:00;103626.0;;;8.32;88.28
48892;BME280;50130;52.150;5.236;2023-02-13T00:13:14;103623.0;;;8.34;88.3
48892;BME280;50130;52.150;5.236;2023-02-13T00:14:51;103624.0;;;8.32;88.03
48892;BME280;50130;52.150;5.236;2023-02-13T00:16:28;103620.0;;;8.26;88.49
48892;BME280;50130;52.150;5.236;2023-02-13T00:18:05;103615.00000000001;;;8.24;88.53
48892;BME280;50130;52.150;5.236;2023-02-13T00:21:19;103616.00000000001;;;8.28;88.46
48892;BME280;50130;52.150;5.236;2023-02-13T00:22:57;103615.00000000001;;;8.28;88.31
48892;BME280;50130;52.150;5.236;2023-02-13T00:24:33;103611.99999999999;;;8.27;88.28
48892;BME280;50130;52.150;5.236;2023-02-13T00:27:51;103608.99999999999;;;8.27;88.46
48892;BME280;50130;52.150;5.236;2023-02-13T00:29:29;103608.0;;;8.26;88.32
48892;BME280;50130;52.150;5.236;2023-02-13T00:31:07;103603.0;;;8.31;88.17
48892;BME280;50130;52.150;5.236;2023-02-13T00:32:44;103608.0;;;8.27;87.96
48892;BME280;50130;52.150;5.236;2023-02-13T00:36:03;103595.0;;;8.27;87.95
48892;BME280;50130;52.150;5.236;2023-02-13T00:37:41;103603.0;;;8.25;87.91
48892;BME280;50130;52.150;5.236;2023-02-13T00:39:17;103600.0;;;8.27;87.81
48892;BME280;50130;52.150;5.236;2023-02-13T00:42:30;103600.0;;;8.3;87.17
48892;BME280;50130;52.150;5.236;2023-02-13T00:44:08;103603.0;;;8.31;87.7
48892;BME280;50130;52.150;5.236;2023-02-13T00:45:44;103605.0;;;8.28;88.27
48892;BME280;50130;52.150;5.236;2023-02-13T00:47:21;103600.0;;;8.26;88.0
48892;BME280;50130;52.150;5.236;2023-02-13T00:50:34;103608.0;;;8.32;87.69
48892;BME280;50130;52.150;5.236;2023-02-13T00:52:10;103604.0;;;8.27;87.48
48892;BME280;50130;52.150;5.236;2023-02-13T00:53:47;103605.0;;;8.27;87.97
48892;BME280;50130;52.150;5.236;2023-02-13T00:57:02;103599.0;;;8.31;87.75
48892;BME280;50130;52.150;5.236;2023-02-13T00:58:39;103593.0;;;8.3;88.08
48892;BME280;50130;52.150;5.236;2023-02-13T01:00:16;103595.0;;;8.33;87.55
48892;BME280;50130;52.150;5.236;2023-02-13T01:03:29;103596.0;;;8.35;87.59
48892;BME280;50130;52.150;5.236;2023-02-13T01:05:07;103592.0;;;8.38;87.91
48892;BME280;50130;52.150;5.236;2023-02-13T01:06:43;103593.0;;;8.34;87.69
48892;BME280;50130;52.150;5.236;2023-02-13T01:08:20;103595.0;;;8.28;88.24
48892;BME280;50130;52.150;5.236;2023-02-13T01:11:33;103598.0;;;8.26;88.21
48892;BME280;50130;52.150;5.236;2023-02-13T01:13:11;103600.0;;;8.23;88.11
48892;BME280;50130;52.150;5.236;2023-02-13T01:14:48;103600.0;;;8.24;88.26
48892;BME280;50130;52.150;5.236;2023-02-13T01:18:03;103595.0;;;8.25;88.16
48892;BME280;50130;52.150;5.236;2023-02-13T01:19:40;103599.0;;;8.23;88.35
48892;BME280;50130;52.150;5.236;2023-02-13T01:21:19;103596.0;;;8.24;88.19
48892;BME280;50130;52.150;5.236;2023-02-13T01:22:57;103592.0;;;8.3;87.96
48892;BME280;50130;52.150;5.236;2023-02-13T01:26:15;103597.0;;;8.33;87.78
48892;BME280;50130;52.150;5.236;2023-02-13T01:27:54;103592.0;;;8.27;87.75
48892;BME280;50130;52.150;5.236;2023-02-13T01:29:30;103592.0;;;8.31;87.59
48892;BME280;50130;52.150;5.236;2023-02-13T01:32:45;103589.00000000001;;;8.28;87.55
48892;BME280;50130;52.150;5.236;2023-02-13T01:34:23;103592.0;;;8.23;88.01
48892;BME280;50130;52.150;5.236;2023-02-13T01:36:05;103586.99999999999;;;8.23;88.24
48892;BME280;50130;52.150;5.236;2023-02-13T01:37:42;103583.99999999999;;;8.26;87.76
48892;BME280;50130;52.150;5.236;2023-02-13T01:40:55;103586.99999999999;;;8.24;88.02
48892;BME280;50130;52.150;5.236;2023-02-13T01:42:33;103588.00000000001;;;8.27;87.9
48892;BME280;50130;52.150;5.236;2023-02-13T01:45:21;103586.99999999999;;;8.31;87.84
48892;BME280;50130;52.150;5.236;2023-02-13T01:47:07;103584.99999999999;;;8.45;86.99
48892;BME280;50130;52.150;5.236;2023-02-13T01:48:45;103584.99999999999;;;8.43;86.53
48892;BME280;50130;52.150;5.236;2023-02-13T01:50:28;103583.99999999999;;;8.33;86.93
48892;BME280;50130;52.150;5.236;2023-02-13T01:53:48;103581.0;;;8.34;86.83
48892;BME280;50130;52.150;5.236;2023-02-13T01:55:28;103582.0;;;8.27;86.95
48892;BME280;50130;52.150;5.236;2023-02-13T01:57:09;103581.0;;;8.3;86.77
48892;BME280;50130;52.150;5.236;2023-02-13T01:58:51;103583.99999999999;;;8.28;86.7
48892;BME280;50130;52.150;5.236;2023-02-13T02:00:35;103577.0;;;8.3;86.93
48892;BME280;50130;52.150;5.236;2023-02-13T02:03:54;103577.0;;;8.26;86.82
48892;BME280;50130;52.150;5.236;2023-02-13T02:05:33;103581.0;;;8.22;87.27
48892;BME280;50130;52.150;5.236;2023-02-13T02:07:13;103580.0;;;8.23;87.59
48892;BME280;50130;52.150;5.236;2023-02-13T02:09:00;103576.0;;;8.23;87.62
48892;BME280;50130;52.150;5.236;2023-02-13T02:12:22;103567.0;;;8.38;87.22
48892;BME280;50130;52.150;5.236;2023-02-13T02:14:02;103576.0;;;8.34;86.76
48892;BME280;50130;52.150;5.236;2023-02-13T02:15:41;103570.0;;;8.31;86.99
48892;BME280;50130;52.150;5.236;2023-02-13T02:17:18;103576.0;;;8.31;86.62
48892;BME280;50130;52.150;5.236;2023-02-13T02:20:52;103573.0;;;8.43;85.86
48892;BME280;50130;52.150;5.236;2023-02-13T02:25:03;103576.0;;;8.33;86.55
48892;BME280;50130;52.150;5.236;2023-02-13T02:27:15;103575.0;;;8.26;87.18
48892;BME280;50130;52.150;5.236;2023-02-13T02:34:18;103575.0;;;8.27;86.87
48892;BME280;50130;52.150;5.236;2023-02-13T02:38:13;103570.0;;;8.26;86.96
48892;BME280;50130;52.150;5.236;2023-02-13T02:40:19;103574.0;;;8.32;86.64
48892;BME280;50130;52.150;5.236;2023-02-13T02:42:09;103572.0;;;8.31;86.49
48892;BME280;50130;52.150;5.236;2023-02-13T02:43:59;103570.0;;;8.31;86.4
48892;BME280;50130;52.150;5.236;2023-02-13T02:46:00;103567.0;;;8.31;86.15
48892;BME280;50130;52.150;5.236;2023-02-13T02:50:11;103567.0;;;8.36;86.22
48892;BME280;50130;52.150;5.236;2023-02-13T02:51:57;103565.00000000001;;;8.3;86.58
48892;BME280;50130;52.150;5.236;2023-02-13T02:53:43;103563.00000000001;;;8.31;86.9
48892;BME280;50130;52.150;5.236;2023-02-13T02:55:35;103558.0;;;8.32;86.43
48892;BME280;50130;52.150;5.236;2023-02-13T02:57:14;103557.0;;;8.31;86.48
48892;BME280;50130;52.150;5.236;2023-02-13T03:07:17;103558.0;;;8.27;86.73
48892;BME280;50130;52.150;5.236;2023-02-13T03:13:34;103558.0;;;8.28;86.72
48892;BME280;50130;52.150;5.236;2023-02-13T03:15:16;103557.0;;;8.36;86.3
48892;BME280;50130;52.150;5.236;2023-02-13T03:22:30;103559.99999999999;;;8.25;86.55
48892;BME280;50130;52.150;5.236;2023-02-13T03:26:14;103565.00000000001;;;8.27;86.85
48892;BME280;50130;52.150;5.236;2023-02-13T03:30:40;103561.99999999999;;;8.32;87.08
48892;BME280;50130;52.150;5.236;2023-02-13T03:32:39;103567.0;;;8.26;86.57
48892;BME280;50130;52.150;5.236;2023-02-13T03:34:22;103567.0;;;8.39;85.82
48892;BME280;50130;52.150;5.236;2023-02-13T03:38:26;103566.00000000001;;;8.28;86.75
48892;BME280;50130;52.150;5.236;2023-02-13T03:40:12;103565.00000000001;;;8.28;86.86
48892;BME280;50130;52.150;5.236;2023-02-13T03:41:56;103565.00000000001;;;8.28;86.73
48892;BME280;50130;52.150;5.236;2023-02-13T03:43:40;103556.0;;;8.27;86.64
48892;BME280;50130;52.150;5.236;2023-02-13T03:45:52;103556.0;;;8.26;86.65
48892;BME280;50130;52.150;5.236;2023-02-13T03:47:31;103556.0;;;8.24;87.14
48892;BME280;50130;52.150;5.236;2023-02-13T03:51:55;103557.0;;;8.22;87.54
48892;BME280;50130;52.150;5.236;2023-02-13T03:53:35;103558.99999999999;;;8.26;87.58
48892;BME280;50130;52.150;5.236;2023-02-13T03:59:29;103556.0;;;8.23;87.66
48892;BME280;50130;52.150;5.236;2023-02-13T04:01:08;103555.0;;;8.26;87.45
48892;BME280;50130;52.150;5.236;2023-02-13T04:02:53;103549.0;;;8.24;87.74
48892;BME280;50130;52.150;5.236;2023-02-13T04:04:39;103552.0;;;8.23;88.14
48892;BME280;50130;52.150;5.236;2023-02-13T04:06:21;103552.0;;;8.23;88.08
48892;BME280;50130;52.150;5.236;2023-02-13T04:09:41;103547.0;;;8.27;87.95
48892;BME280;50130;52.150;5.236;2023-02-13T04:11:23;103549.0;;;8.25;87.63
48892;BME280;50130;52.150;5.236;2023-02-13T04:13:09;103548.0;;;8.26;87.81
48892;BME280;50130;52.150;5.236;2023-02-13T04:14:54;103548.0;;;8.23;88.0
48892;BME280;50130;52.150;5.236;2023-02-13T04:16:36;103547.0;;;8.25;88.17
48892;BME280;50130;52.150;5.236;2023-02-13T04:19:57;103548.0;;;8.23;88.48
48892;BME280;50130;52.150;5.236;2023-02-13T04:21:36;103548.0;;;8.23;88.33
48892;BME280;50130;52.150;5.236;2023-02-13T04:23:14;103552.0;;;8.23;88.13
48892;BME280;50130;52.150;5.236;2023-02-13T04:26:33;103549.0;;;8.24;88.19
48892;BME280;50130;52.150;5.236;2023-02-13T04:28:11;103551.0;;;8.18;88.55
48892;BME280;50130;52.150;5.236;2023-02-13T04:29:47;103553.0;;;8.17;88.63
48892;BME280;50130;52.150;5.236;2023-02-13T04:31:23;103552.0;;;8.18;88.94
48892;BME280;50130;52.150;5.236;2023-02-13T04:34:35;103554.0;;;8.24;88.52
48892;BME280;50130;52.150;5.236;2023-02-13T04:36:13;103547.0;;;8.23;88.58
48892;BME280;50130;52.150;5.236;2023-02-13T04:37:49;103548.0;;;8.18;88.71
48892;BME280;50130;52.150;5.236;2023-02-13T04:41:01;103550.0;;;8.15;89.04
48892;BME280;50130;52.150;5.236;2023-02-13T04:42:37;103554.0;;;8.22;88.5
48892;BME280;50130;52.150;5.236;2023-02-13T04:44:13;103547.0;;;8.17;88.5
48892;BME280;50130;52.150;5.236;2023-02-13T04:45:50;103544.0;;;8.19;88.69
48892;BME280;50130;52.150;5.236;2023-02-13T04:49:03;103543.0;;;8.2;88.61
48892;BME280;50130;52.150;5.236;2023-02-13T04:50:39;103541.00000000001;;;8.2;88.73
48892;BME280;50130;52.150;5.236;2023-02-13T04:52:15;103543.0;;;8.18;88.9
48892;BME280;50130;52.150;5.236;2023-02-13T04:55:29;103543.0;;;8.2;88.52
48892;BME280;50130;52.150;5.236;2023-02-13T04:57:05;103542.0;;;8.19;88.99
48892;BME280;50130;52.150;5.236;2023-02-13T04:58:41;103539.00000000001;;;8.16;88.83
48892;BME280;50130;52.150;5.236;2023-02-13T05:01:55;103536.99999999999;;;8.14;89.15
48892;BME280;50130;52.150;5.236;2023-02-13T05:03:31;103532.0;;;8.16;89.07
48892;BME280;50130;52.150;5.236;2023-02-13T05:05:07;103532.0;;;8.18;89.04
48892;BME280;50130;52.150;5.236;2023-02-13T05:06:44;103528.0;;;8.18;88.9
48892;BME280;50130;52.150;5.236;2023-02-13T05:09:56;103530.0;;;8.14;89.33
48892;BME280;50130;52.150;5.236;2023-02-13T05:11:32;103527.0;;;8.11;89.26
48892;BME280;50130;52.150;5.236;2023-02-13T05:13:08;103527.0;;;8.17;88.79
48892;BME280;50130;52.150;5.236;2023-02-13T05:16:21;103524.0;;;8.14;89.46
48892;BME280;50130;52.150;5.236;2023-02-13T05:17:57;103526.0;;;8.11;89.52
48892;BME280;50130;52.150;5.236;2023-02-13T05:19:33;103524.0;;;8.14;89.32
48892;BME280;50130;52.150;5.236;2023-02-13T05:25:07;103518.0;;;8.14;89.49
48892;BME280;50130;52.150;5.236;2023-02-13T05:26:44;103519.0;;;8.14;89.29
48892;BME280;50130;52.150;5.236;2023-02-13T05:29:24;103519.0;;;8.11;89.43
48892;BME280;50130;52.150;5.236;2023-02-13T05:31:01;103518.0;;;8.09;89.49
48892;BME280;50130;52.150;5.236;2023-02-13T05:32:37;103524.0;;;8.1;89.56
48892;BME280;50130;52.150;5.236;2023-02-13T05:34:14;103521.0;;;8.09;89.76
48892;BME280;50130;52.150;5.236;2023-02-13T05:37:27;103524.0;;;8.1;90.0
48892;BME280;50130;52.150;5.236;2023-02-13T05:39:03;103523.0;;;8.11;89.78
48892;BME280;50130;52.150;5.236;2023-02-13T05:40:39;103519.0;;;8.11;89.84
48892;BME280;50130;52.150;5.236;2023-02-13T05:43:51;103520.0;;;8.14;89.68
48892;BME280;50130;52.150;5.236;2023-02-13T05:45:27;103524.0;;;8.1;89.59
48892;BME280;50130;52.150;5.236;2023-02-13T05:47:04;103522.0;;;8.09;89.54
48892;BME280;50130;52.150;5.236;2023-02-13T05:48:40;103520.0;;;8.11;89.59
48892;BME280;50130;52.150;5.236;2023-02-13T05:51:52;103523.0;;;8.13;89.58
48892;BME280;50130;52.150;5.236;2023-02-13T05:53:28;103523.0;;;8.1;89.72
48892;BME280;50130;52.150;5.236;2023-02-13T05:55:05;103525.0;;;8.06;89.88
48892;BME280;50130;52.150;5.236;2023-02-13T05:58:19;103517.0;;;8.08;89.6
48892;BME280;50130;52.150;5.236;2023-02-13T05:59:56;103525.0;;;8.11;89.68
48892;BME280;50130;52.150;5.236;2023-02-13T06:01:32;103523.0;;;8.07;90.03
48892;BME280;50130;52.150;5.236;2023-02-13T06:04:45;103524.0;;;8.06;90.36
48892;BME280;50130;52.150;5.236;2023-02-13T06:06:22;103527.0;;;8.06;90.48
48892;BME280;50130;52.150;5.236;2023-02-13T06:07:58;103528.0;;;8.05;90.4
48892;BME280;50130;52.150;5.236;2023-02-13T06:09:34;103526.0;;;8.09;90.32
48892;BME280;50130;52.150;5.236;2023-02-13T06:12:46;103529.0;;;8.15;89.85
48892;BME280;50130;52.150;5.236;2023-02-13T06:14:22;103525.0;;;8.15;89.69
48892;BME280;50130;52.150;5.236;2023-02-13T06:15:59;103526.0;;;8.08;90.42
48892;BME280;50130;52.150;5.236;2023-02-13T06:19:11;103528.0;;;8.03;90.57
48892;BME280;50130;52.150;5.236;2023-02-13T06:20:47;103527.0;;;8.0;90.83
48892;BME280;50130;52.150;5.236;2023-02-13T06:22:23;103526.0;;;8.0;90.83
48892;BME280;50130;52.150;5.236;2023-02-13T06:25:36;103527.0;;;8.08;90.27
48892;BME280;50130;52.150;5.236;2023-02-13T06:27:13;103524.0;;;8.07;90.61
48892;BME280;50130;52.150;5.236;2023-02-13T06:28:49;103525.0;;;8.06;90.66
48892;BME280;50130;52.150;5.236;2023-02-13T06:30:25;103524.0;;;8.08;90.39
48892;BME280;50130;52.150;5.236;2023-02-13T06:33:38;103524.0;;;8.09;90.53
48892;BME280;50130;52.150;5.236;2023-02-13T06:35:15;103528.0;;;8.14;90.37
48892;BME280;50130;52.150;5.236;2023-02-13T06:36:52;103522.0;;;8.06;90.65
48892;BME280;50130;52.150;5.236;2023-02-13T06:40:05;103524.0;;;8.0;90.97
48892;BME280;50130;52.150;5.236;2023-02-13T06:41:42;103519.0;;;7.99;91.31
48892;BME280;50130;52.150;5.236;2023-02-13T06:43:19;103527.0;;;7.98;91.65
48892;BME280;50130;52.150;5.236;2023-02-13T06:46:31;103528.0;;;7.98;91.61
48892;BME280;50130;52.150;5.236;2023-02-13T06:48:07;103528.0;;;8.07;91.1
48892;BME280;50130;52.150;5.236;2023-02-13T06:49:43;103529.0;;;8.06;91.22
48892;BME280;50130;52.150;5.236;2023-02-13T06:51:19;103531.0;;;8.03;91.37
48892;BME280;50130;52.150;5.236;2023-02-13T06:54:32;103529.0;;;8.06;91.2
48892;BME280;50130;52.150;5.236;2023-02-13T06:56:08;103527.0;;;8.06;91.06
48892;BME280;50130;52.150;5.236;2023-02-13T06:57:45;103528.0;;;8.09;91.15
48892;BME280;50130;52.150;5.236;2023-02-13T07:00:58;103532.0;;;8.06;91.45
48892;BME280;50130;52.150;5.236;2023-02-13T07:02:36;103532.0;;;8.05;91.41
48892;BME280;50130;52.150;5.236;2023-02-13T07:04:12;103534.99999999999;;;8.03;91.47
48892;BME280;50130;52.150;5.236;2023-02-13T07:07:31;103536.99999999999;;;8.06;91.41
48892;BME280;50130;52.150;5.236;2023-02-13T07:09:07;103532.0;;;8.11;91.28
48892;BME280;50130;52.150;5.236;2023-02-13T07:10:44;103541.00000000001;;;8.02;91.65
48892;BME280;50130;52.150;5.236;2023-02-13T07:12:20;103540.00000000001;;;8.03;91.61
48892;BME280;50130;52.150;5.236;2023-02-13T07:15:33;103540.00000000001;;;8.03;91.79
48892;BME280;50130;52.150;5.236;2023-02-13T07:17:10;103538.00000000001;;;8.02;91.96
48892;BME280;50130;52.150;5.236;2023-02-13T07:18:47;103536.99999999999;;;8.06;91.82
48892;BME280;50130;52.150;5.236;2023-02-13T07:22:00;103532.0;;;8.06;92.04
48892;BME280;50130;52.150;5.236;2023-02-13T07:23:36;103533.0;;;8.06;91.92
48892;BME280;50130;52.150;5.236;2023-02-13T07:25:12;103532.0;;;8.09;91.78
48892;BME280;50130;52.150;5.236;2023-02-13T07:28:24;103533.0;;;8.08;91.99
48892;BME280;50130;52.150;5.236;2023-02-13T07:30:02;103536.99999999999;;;8.14;91.79
48892;BME280;50130;52.150;5.236;2023-02-13T07:31:39;103542.0;;;8.18;91.6
48892;BME280;50130;52.150;5.236;2023-02-13T07:33:15;103542.0;;;8.18;91.66
48892;BME280;50130;52.150;5.236;2023-02-13T07:36:27;103542.0;;;8.22;91.63
48892;BME280;50130;52.150;5.236;2023-02-13T07:38:03;103542.0;;;8.23;91.57
48892;BME280;50130;52.150;5.236;2023-02-13T07:39:40;103534.99999999999;;;8.23;91.47
48892;BME280;50130;52.150;5.236;2023-02-13T07:42:53;103541.00000000001;;;8.36;91.0
48892;BME280;50130;52.150;5.236;2023-02-13T07:44:29;103545.0;;;8.32;91.09
48892;BME280;50130;52.150;5.236;2023-02-13T07:46:05;103548.0;;;8.34;91.13
48892;BME280;50130;52.150;5.236;2023-02-13T07:49:17;103548.0;;;8.32;91.11
48892;BME280;50130;52.150;5.236;2023-02-13T07:50:54;103549.0;;;8.31;91.14
48892;BME280;50130;52.150;5.236;2023-02-13T07:52:36;103555.0;;;8.32;91.06
48892;BME280;50130;52.150;5.236;2023-02-13T07:54:12;103553.0;;;8.3;91.17
48892;BME280;50130;52.150;5.236;2023-02-13T07:57:25;103559.99999999999;;;8.31;91.23
48892;BME280;50130;52.150;5.236;2023-02-13T07:59:01;103564.00000000001;;;8.32;91.26
48892;BME280;50130;52.150;5.236;2023-02-13T08:00:38;103565.00000000001;;;8.31;91.05
48892;BME280;50130;52.150;5.236;2023-02-13T08:03:51;103569.0;;;8.31;91.14
48892;BME280;50130;52.150;5.236;2023-02-13T08:05:28;103570.0;;;8.28;91.32
48892;BME280;50130;52.150;5.236;2023-02-13T08:07:05;103570.0;;;8.35;91.06
48892;BME280;50130;52.150;5.236;2023-02-13T08:12:07;103575.0;;;8.39;91.12
48892;BME280;50130;52.150;5.236;2023-02-13T08:13:52;103583.0;;;8.44;90.84
48892;BME280;50130;52.150;5.236;2023-02-13T08:15:28;103580.0;;;8.47;90.88
48892;BME280;50130;52.150;5.236;2023-02-13T08:18:40;103579.0;;;8.47;90.8
48892;BME280;50130;52.150;5.236;2023-02-13T08:20:17;103579.0;;;8.42;90.91
48892;BME280;50130;52.150;5.236;2023-02-13T08:21:53;103577.0;;;8.42;91.0
48892;BME280;50130;52.150;5.236;2023-02-13T08:23:30;103579.0;;;8.41;91.05
48892;BME280;50130;52.150;5.236;2023-02-13T08:26:43;103578.0;;;8.45;90.92
48892;BME280;50130;52.150;5.236;2023-02-13T08:28:19;103577.0;;;8.47;90.88
48892;BME280;50130;52.150;5.236;2023-02-13T08:29:56;103578.0;;;8.49;91.08
48892;BME280;50130;52.150;5.236;2023-02-13T08:33:09;103578.0;;;8.52;91.0
48892;BME280;50130;52.150;5.236;2023-02-13T08:34:45;103578.0;;;8.59;90.91
48892;BME280;50130;52.150;5.236;2023-02-13T08:36:21;103575.0;;;8.61;90.93
48892;BME280;50130;52.150;5.236;2023-02-13T08:39:37;103570.0;;;8.81;90.75
48892;BME280;50130;52.150;5.236;2023-02-13T08:41:14;103569.0;;;8.89;90.42
48892;BME280;50130;52.150;5.236;2023-02-13T08:42:51;103576.0;;;9.03;89.66
48892;BME280;50130;52.150;5.236;2023-02-13T08:44:27;103573.0;;;9.03;89.61
48892;BME280;50130;52.150;5.236;2023-02-13T08:47:40;103571.0;;;8.98;89.8
48892;BME280;50130;52.150;5.236;2023-02-13T08:49:17;103574.0;;;9.11;89.45
48892;BME280;50130;52.150;5.236;2023-02-13T08:50:52;103580.0;;;9.23;88.94
48892;BME280;50130;52.150;5.236;2023-02-13T08:54:05;103580.0;;;9.26;88.9
48892;BME280;50130;52.150;5.236;2023-02-13T08:55:41;103580.0;;;9.41;88.68
48892;BME280;50130;52.150;5.236;2023-02-13T08:57:17;103586.99999999999;;;9.49;88.13
48892;BME280;50130;52.150;5.236;2023-02-13T09:00:31;103590.00000000001;;;9.41;88.56
48892;BME280;50130;52.150;5.236;2023-02-13T09:02:09;103591.00000000001;;;9.39;88.17
48892;BME280;50130;52.150;5.236;2023-02-13T09:03:49;103590.00000000001;;;9.52;87.94
48892;BME280;50130;52.150;5.236;2023-02-13T09:05:25;103583.99999999999;;;9.58;87.4
48892;BME280;50130;52.150;5.236;2023-02-13T09:08:39;103584.99999999999;;;9.69;86.97
48892;BME280;50130;52.150;5.236;2023-02-13T09:10:16;103584.99999999999;;;9.65;87.18
48892;BME280;50130;52.150;5.236;2023-02-13T09:11:55;103582.0;;;9.58;87.46
48892;BME280;50130;52.150;5.236;2023-02-13T09:15:11;103583.0;;;9.56;87.61
48892;BME280;50130;52.150;5.236;2023-02-13T09:16:47;103590.00000000001;;;9.66;87.08
48892;BME280;50130;52.150;5.236;2023-02-13T09:18:23;103586.99999999999;;;9.71;87.25
48892;BME280;50130;52.150;5.236;2023-02-13T09:19:59;103590.00000000001;;;9.77;87.12
48892;BME280;50130;52.150;5.236;2023-02-13T09:23:11;103588.00000000001;;;9.81;86.65
48892;BME280;50130;52.150;5.236;2023-02-13T09:24:48;103583.0;;;9.73;87.41
48892;BME280;50130;52.150;5.236;2023-02-13T09:26:24;103584.99999999999;;;9.8;87.02
48892;BME280;50130;52.150;5.236;2023-02-13T09:29:36;103583.0;;;9.89;86.72
48892;BME280;50130;52.150;5.236;2023-02-13T09:31:15;103583.0;;;9.85;86.13
48892;BME280;50130;52.150;5.236;2023-02-13T09:32:53;103582.0;;;9.89;86.43
48892;BME280;50130;52.150;5.236;2023-02-13T09:34:30;103583.0;;;9.96;86.46
48892;BME280;50130;52.150;5.236;2023-02-13T09:37:45;103582.0;;;10.0;86.23
48892;BME280;50130;52.150;5.236;2023-02-13T09:39:22;103583.99999999999;;;9.99;85.58
48892;BME280;50130;52.150;5.236;2023-02-13T09:41:01;103582.0;;;9.96;85.75
48892;BME280;50130;52.150;5.236;2023-02-13T09:44:34;103586.99999999999;;;10.18;85.18
48892;BME280;50130;52.150;5.236;2023-02-13T09:46:17;103583.99999999999;;;10.16;84.81
48892;BME280;50130;52.150;5.236;2023-02-13T09:47:55;103586.99999999999;;;10.22;85.14
48892;BME280;50130;52.150;5.236;2023-02-13T09:49:34;103584.99999999999;;;10.15;84.44
48892;BME280;50130;52.150;5.236;2023-02-13T09:51:15;103581.0;;;10.35;84.15
48892;BME280;50130;52.150;5.236;2023-02-13T09:54:32;103581.0;;;10.47;83.68
48892;BME280;50130;52.150;5.236;2023-02-13T09:56:12;103575.0;;;10.53;83.04
48892;BME280;50130;52.150;5.236;2023-02-13T09:57:55;103576.0;;;10.51;83.42
48892;BME280;50130;52.150;5.236;2023-02-13T09:59:44;103578.0;;;10.72;82.49
48892;BME280;50130;52.150;5.236;2023-02-13T10:03:27;103578.0;;;10.46;83.31
48892;BME280;50130;52.150;5.236;2023-02-13T10:05:17;103579.0;;;10.43;84.05
48892;BME280;50130;52.150;5.236;2023-02-13T10:07:09;103578.0;;;10.44;84.42
48892;BME280;50130;52.150;5.236;2023-02-13T10:08:57;103578.0;;;10.48;84.03
48892;BME280;50130;52.150;5.236;2023-02-13T10:10:49;103581.0;;;10.62;83.95
48892;BME280;50130;52.150;5.236;2023-02-13T10:12:39;103579.0;;;10.6;83.27
48892;BME280;50130;52.150;5.236;2023-02-13T10:14:24;103575.0;;;10.61;84.03
48892;BME280;50130;52.150;5.236;2023-02-13T10:17:53;103576.0;;;10.74;84.2
48892;BME280;50130;52.150;5.236;2023-02-13T10:19:35;103575.0;;;10.77;83.78
48892;BME280;50130;52.150;5.236;2023-02-13T10:21:19;103579.0;;;10.87;82.38
48892;BME280;50130;52.150;5.236;2023-02-13T10:22:59;103577.0;;;11.03;80.83
48892;BME280;50130;52.150;5.236;2023-02-13T10:24:47;103571.0;;;11.1;80.34
48892;BME280;50130;52.150;5.236;2023-02-13T10:28:29;103567.0;;;11.16;80.58
48892;BME280;50130;52.150;5.236;2023-02-13T10:31:58;103569.0;;;11.42;80.23
48892;BME280;50130;52.150;5.236;2023-02-13T10:33:42;103564.00000000001;;;11.38;79.5
48892;BME280;50130;52.150;5.236;2023-02-13T10:35:26;103565.00000000001;;;11.35;80.16
48892;BME280;50130;52.150;5.236;2023-02-13T10:38:55;103566.00000000001;;;11.5;78.41
48892;BME280;50130;52.150;5.236;2023-02-13T10:40:38;103563.00000000001;;;11.57;78.05
48892;BME280;50130;52.150;5.236;2023-02-13T10:42:25;103559.99999999999;;;11.72;78.91
48892;BME280;50130;52.150;5.236;2023-02-13T10:44:24;103558.0;;;11.69;78.64
48892;BME280;50130;52.150;5.236;2023-02-13T10:46:13;103559.99999999999;;;11.73;77.75
48892;BME280;50130;52.150;5.236;2023-02-13T10:48:04;103564.00000000001;;;11.87;76.61
48892;BME280;50130;52.150;5.236;2023-02-13T10:49:57;103558.0;;;11.94;77.38
48892;BME280;50130;52.150;5.236;2023-02-13T10:53:34;103557.0;;;11.76;77.91
48892;BME280;50130;52.150;5.236;2023-02-13T10:55:25;103558.99999999999;;;11.98;77.19
48892;BME280;50130;52.150;5.236;2023-02-13T10:57:14;103558.99999999999;;;11.95;75.77
48892;BME280;50130;52.150;5.236;2023-02-13T10:59:14;103561.99999999999;;;11.98;75.73
48892;BME280;50130;52.150;5.236;2023-02-13T11:00:56;103557.0;;;12.02;74.94
48892;BME280;50130;52.150;5.236;2023-02-13T11:02:36;103557.0;;;12.08;75.53
48892;BME280;50130;52.150;5.236;2023-02-13T11:05:54;103558.0;;;12.16;75.94
48892;BME280;50130;52.150;5.236;2023-02-13T11:07:33;103556.0;;;12.37;74.84
48892;BME280;50130;52.150;5.236;2023-02-13T11:09:12;103550.0;;;12.34;74.0
48892;BME280;50130;52.150;5.236;2023-02-13T11:10:48;103551.0;;;12.48;73.27
48892;BME280;50130;52.150;5.236;2023-02-13T11:14:09;103553.0;;;12.5;72.03
48892;BME280;50130;52.150;5.236;2023-02-13T11:15:56;103553.0;;;12.55;74.16
48892;BME280;50130;52.150;5.236;2023-02-13T11:17:36;103550.0;;;12.5;73.75
48892;BME280;50130;52.150;5.236;2023-02-13T11:19:19;103544.0;;;12.49;73.59
48892;BME280;50130;52.150;5.236;2023-02-13T11:22:39;103542.0;;;12.55;72.23
48892;BME280;50130;52.150;5.236;2023-02-13T11:24:18;103542.0;;;12.72;72.39
48892;BME280;50130;52.150;5.236;2023-02-13T11:25:58;103542.0;;;12.83;70.97
48892;BME280;50130;52.150;5.236;2023-02-13T11:27:37;103534.99999999999;;;12.8;71.61
48892;BME280;50130;52.150;5.236;2023-02-13T11:31:09;103534.99999999999;;;12.84;71.8
48892;BME280;50130;52.150;5.236;2023-02-13T11:32:56;103532.0;;;12.83;71.52
48892;BME280;50130;52.150;5.236;2023-02-13T11:34:33;103538.00000000001;;;12.94;70.88